createdAt,value
2018-07-11T00:02:04.033Z,15.20
2018-07-11T00:04:33.497Z,15.20
2018-07-11T00:07:02.958Z,15.10
2018-07-11T00:09:32.397Z,15.10
2018-07-11T00:12:01.890Z,15.20
2018-07-11T00:14:31.388Z,15.10
2018-07-11T00:19:40.107Z,15.00
2018-07-11T00:22:09.573Z,15.00
2018-07-11T00:24:38.953Z,15.00
2018-07-11T00:27:08.504Z,14.90
2018-07-11T00:29:37.969Z,14.90
2018-07-11T00:32:07.302Z,14.90
2018-07-11T00:34:36.849Z,14.90
2018-07-11T00:39:35.355Z,14.90
2018-07-11T00:42:04.857Z,15.00
2018-07-11T00:47:04.606Z,15.20
2018-07-11T00:49:34.088Z,15.30
2018-07-11T00:54:32.599Z,15.20
2018-07-11T00:57:02.750Z,15.30
2018-07-11T00:59:34.786Z,15.30
2018-07-11T01:02:06.210Z,15.40
2018-07-11T01:04:36.026Z,15.50
2018-07-11T01:07:07.122Z,15.60
2018-07-11T01:09:40.800Z,15.70
2018-07-11T01:12:10.777Z,15.80
2018-07-11T01:14:40.244Z,15.80
2018-07-11T01:17:15.029Z,15.80
2018-07-11T01:19:45.752Z,15.80
2018-07-11T01:22:15.254Z,15.70
2018-07-11T01:32:11.530Z,15.50
2018-07-11T01:34:41.012Z,15.50
2018-07-11T01:39:39.377Z,15.50
2018-07-11T01:42:08.782Z,15.60
2018-07-11T01:44:38.202Z,15.50
2018-07-11T01:47:08.466Z,15.50
2018-07-11T01:49:38.032Z,15.50
2018-07-11T01:52:18.674Z,15.40
2018-07-11T01:54:48.211Z,15.40
2018-07-11T01:57:17.686Z,15.40
2018-07-11T01:59:47.185Z,15.50
2018-07-11T02:02:16.829Z,15.50
2018-07-11T02:04:46.330Z,15.50
2018-07-11T02:07:15.884Z,15.60
2018-07-11T02:09:46.061Z,15.60
2018-07-11T02:12:15.574Z,15.70
2018-07-11T02:14:49.304Z,15.70
2018-07-11T02:17:18.812Z,15.70
2018-07-11T02:19:48.389Z,15.70
2018-07-11T02:24:47.555Z,15.60
2018-07-11T02:27:17.030Z,15.60
2018-07-11T02:29:46.508Z,15.50
2018-07-11T02:32:16.376Z,15.50
2018-07-11T02:34:45.778Z,15.40
2018-07-11T02:37:15.124Z,15.40
2018-07-11T02:39:44.540Z,15.40
2018-07-11T02:44:43.025Z,15.40
2018-07-11T02:49:48.818Z,15.40
2018-07-11T02:52:18.187Z,15.40
2018-07-11T02:57:16.549Z,15.40
2018-07-11T03:02:14.970Z,15.30
2018-07-11T03:07:13.396Z,15.10
2018-07-11T03:09:42.770Z,15.20
2018-07-11T03:14:47.605Z,15.10
2018-07-11T03:19:46.701Z,15.10
2018-07-11T03:22:17.026Z,15.20
2018-07-11T03:24:46.465Z,15.20
2018-07-11T03:27:15.923Z,15.30
2018-07-11T03:29:45.371Z,15.30
2018-07-11T03:34:43.763Z,15.20
2018-07-11T03:39:43.133Z,15.20
2018-07-11T03:42:12.484Z,15.20
2018-07-11T03:44:43.204Z,15.20
2018-07-11T03:49:41.625Z,15.30
2018-07-11T03:52:11.137Z,15.30
2018-07-11T03:54:40.597Z,15.30
2018-07-11T03:59:38.950Z,15.40
2018-07-11T04:02:09.043Z,15.50
2018-07-11T04:04:38.426Z,15.50
2018-07-11T04:07:07.930Z,15.60
2018-07-11T04:12:06.628Z,15.60
2018-07-11T04:17:11.647Z,15.70
2018-07-11T04:19:41.151Z,15.70
2018-07-11T04:22:10.532Z,15.70
2018-07-11T04:24:40.024Z,15.80
2018-07-11T04:27:10.000Z,15.80
2018-07-11T04:29:39.606Z,15.80
2018-07-11T04:34:54.467Z,15.80
2018-07-11T04:37:30.725Z,15.80
2018-07-11T04:40:02.708Z,15.80
2018-07-11T04:42:32.923Z,16.00
2018-07-11T04:45:02.336Z,16.00
2018-07-11T04:47:31.906Z,16.00
2018-07-11T04:50:02.287Z,16.10
2018-07-11T04:52:32.399Z,16.10
2018-07-11T04:55:02.179Z,16.10
2018-07-11T04:57:31.694Z,16.10
2018-07-11T05:02:30.118Z,16.10
2018-07-11T05:04:59.567Z,16.10
2018-07-11T05:07:28.973Z,16.10
2018-07-11T05:09:58.363Z,16.30
2018-07-11T05:12:27.858Z,16.40
2018-07-11T05:14:57.318Z,16.60
2018-07-11T05:17:26.788Z,16.80
2018-07-11T05:19:56.455Z,17.10
2018-07-11T05:22:25.933Z,17.10
2018-07-11T05:24:55.452Z,17.00
2018-07-11T05:27:25.000Z,16.90
2018-07-11T05:29:54.346Z,17.00
2018-07-11T05:32:23.943Z,17.20
2018-07-11T05:37:22.529Z,17.50
2018-07-11T05:39:52.236Z,17.50
2018-07-11T05:42:21.989Z,17.50
2018-07-11T05:44:51.524Z,17.50
2018-07-11T05:47:20.987Z,17.50
2018-07-11T05:49:50.445Z,17.50
2018-07-11T05:52:19.846Z,17.50
2018-07-11T05:54:49.288Z,17.50
2018-07-11T06:02:16.462Z,17.50
2018-07-11T06:04:45.870Z,17.40
2018-07-11T06:07:15.278Z,17.40
2018-07-11T06:09:44.600Z,17.30
2018-07-11T06:12:13.944Z,17.30
2018-07-11T06:14:43.397Z,17.40
2018-07-11T06:17:12.787Z,17.40
2018-07-11T06:19:42.179Z,17.40
2018-07-11T06:24:40.405Z,17.50
2018-07-11T06:27:09.829Z,17.50
2018-07-11T06:29:39.196Z,17.50
2018-07-11T06:32:08.680Z,17.70
2018-07-11T06:34:38.078Z,17.90
2018-07-11T06:37:07.589Z,18.10
2018-07-11T06:39:36.991Z,18.20
2018-07-11T06:42:06.864Z,18.50
2018-07-11T06:44:36.374Z,18.70
2018-07-11T06:47:11.104Z,18.70
2018-07-11T06:49:40.511Z,18.80
2018-07-11T06:54:40.417Z,19.10
2018-07-11T06:57:09.910Z,19.30
2018-07-11T06:59:39.324Z,19.40
2018-07-11T07:02:08.791Z,19.40
2018-07-11T07:07:07.324Z,19.00
2018-07-11T07:09:36.929Z,18.90
2018-07-11T07:12:06.801Z,18.90
2018-07-11T07:14:36.343Z,18.90
2018-07-11T07:17:05.927Z,18.60
2018-07-11T07:19:36.099Z,18.60
2018-07-11T07:22:05.754Z,18.80
2018-07-11T07:24:35.661Z,18.80
2018-07-11T07:27:05.206Z,18.90
2018-07-11T07:32:03.521Z,18.90
2018-07-11T07:34:33.308Z,19.10
2018-07-11T07:37:02.774Z,19.30
2018-07-11T07:39:32.572Z,19.80
2018-07-11T07:42:04.686Z,20.30
2018-07-11T07:44:35.042Z,20.70
2018-07-11T07:47:05.872Z,20.50
2018-07-11T07:54:34.108Z,21.80
2018-07-11T07:57:04.745Z,21.90
2018-07-11T07:59:34.169Z,22.20
2018-07-11T08:02:03.580Z,22.10
2018-07-11T08:04:33.811Z,22.00
2018-07-11T08:07:03.453Z,21.70
2018-07-11T08:09:32.923Z,21.50
2018-07-11T08:12:02.247Z,21.60
2018-07-11T08:14:31.705Z,21.90
2018-07-11T08:17:01.133Z,21.80
2018-07-11T08:19:30.702Z,21.60
2018-07-11T08:22:10.108Z,21.50
2018-07-11T08:24:50.856Z,21.50
2018-07-11T08:28:06.819Z,21.30
2018-07-11T08:31:52.697Z,21.60
2018-07-11T08:34:33.955Z,21.80
2018-07-11T08:39:38.630Z,21.90
2018-07-11T08:42:23.796Z,21.80
2018-07-11T08:45:03.939Z,21.50
2018-07-11T08:49:46.167Z,21.40
2018-07-11T08:52:44.220Z,21.40
2018-07-11T08:55:25.379Z,21.70
2018-07-11T09:00:14.656Z,22.10
2018-07-11T09:05:34.942Z,22.40
2018-07-11T09:08:50.475Z,22.30
2018-07-11T09:11:30.984Z,22.90
2018-07-11T09:14:12.233Z,22.80
2018-07-11T09:17:24.558Z,22.80
2018-07-11T09:22:38.463Z,23.20
2018-07-11T09:25:07.898Z,23.30
2018-07-11T09:27:37.249Z,23.30
2018-07-11T09:32:35.770Z,22.80
2018-07-11T09:35:05.225Z,22.80
2018-07-11T09:37:34.702Z,23.00
2018-07-11T09:40:04.214Z,22.80
2018-07-11T09:42:33.645Z,22.50
2018-07-11T09:45:03.035Z,22.70
2018-07-11T09:47:32.553Z,23.10
2018-07-11T09:50:02.935Z,23.30
2018-07-11T09:52:32.726Z,23.50
2018-07-11T09:55:02.213Z,23.60
2018-07-11T09:57:32.254Z,23.70
2018-07-11T10:00:01.915Z,24.10
2018-07-11T10:02:31.391Z,24.60
2018-07-11T10:05:01.357Z,24.80
2018-07-11T10:07:30.815Z,25.10
2018-07-11T10:10:00.308Z,25.10
2018-07-11T10:12:29.760Z,25.10
2018-07-11T10:14:59.121Z,25.00
2018-07-11T10:17:28.701Z,24.80
2018-07-11T10:19:58.955Z,25.00
2018-07-11T10:22:28.568Z,25.10
2018-07-11T10:24:57.966Z,25.50
2018-07-11T10:27:27.498Z,25.60
2018-07-11T10:32:26.369Z,25.80
2018-07-11T10:34:55.791Z,25.90
2018-07-11T10:37:25.258Z,26.10
2018-07-11T10:39:54.695Z,25.70
2018-07-11T10:42:24.195Z,25.30
2018-07-11T10:44:53.701Z,25.40
2018-07-11T10:47:23.206Z,25.10
2018-07-11T10:49:52.568Z,25.00
2018-07-11T10:52:21.960Z,25.00
2018-07-11T10:54:51.475Z,24.80
2018-07-11T10:57:20.881Z,24.90
2018-07-11T10:59:50.587Z,25.10
2018-07-11T11:02:22.661Z,25.00
2018-07-11T11:04:52.291Z,24.80
2018-07-11T11:07:21.879Z,24.90
2018-07-11T11:09:51.425Z,24.80
2018-07-11T11:14:49.923Z,25.20
2018-07-11T11:19:48.580Z,25.40
2018-07-11T11:22:18.142Z,25.50
2018-07-11T11:24:47.741Z,25.70
2018-07-11T11:27:17.275Z,25.90
2018-07-11T11:29:46.873Z,25.90
2018-07-11T11:32:16.450Z,25.80
2018-07-11T11:34:45.943Z,25.90
2018-07-11T11:39:44.575Z,26.50
2018-07-11T11:42:14.429Z,26.70
2018-07-11T11:47:12.700Z,26.20
2018-07-11T11:49:41.987Z,26.10
2018-07-11T11:52:12.669Z,25.90
2018-07-11T11:54:42.098Z,25.70
2018-07-11T11:57:11.473Z,25.80
2018-07-11T11:59:40.900Z,26.10
2018-07-11T12:04:39.486Z,26.70
2018-07-11T12:07:08.921Z,26.90
2018-07-11T12:09:38.409Z,27.20
2018-07-11T12:12:07.936Z,27.20
2018-07-11T12:14:37.441Z,27.30
2018-07-11T12:17:06.895Z,27.10
2018-07-11T12:22:05.264Z,27.70
2018-07-11T12:24:35.024Z,28.60
2018-07-11T12:27:04.504Z,29.30
2018-07-11T12:29:33.970Z,30.10
2018-07-11T12:32:03.629Z,31.30
2018-07-11T12:37:01.982Z,32.90
2018-07-11T12:39:31.491Z,33.90
2018-07-11T12:42:00.959Z,34.80
2018-07-11T12:44:30.465Z,35.70
2018-07-11T12:46:59.903Z,36.30
2018-07-11T12:49:29.449Z,36.90
2018-07-11T12:51:58.858Z,36.90
2018-07-11T12:54:28.386Z,37.20
2018-07-11T12:56:58.450Z,38.10
2018-07-11T13:01:56.932Z,36.50
2018-07-11T13:04:26.382Z,33.50
2018-07-11T13:06:55.902Z,31.80
2018-07-11T13:09:26.546Z,31.40
2018-07-11T13:11:56.000Z,30.60
2018-07-11T13:14:25.450Z,30.10
2018-07-11T13:16:55.411Z,29.90
2018-07-11T13:21:53.705Z,29.30
2018-07-11T13:24:23.059Z,29.20
2018-07-11T13:26:52.447Z,28.80
2018-07-11T13:29:21.941Z,29.30
2018-07-11T13:31:51.353Z,31.30
2018-07-11T13:34:20.777Z,31.50
2018-07-11T13:36:50.148Z,33.30
2018-07-11T13:41:50.427Z,31.40
2018-07-11T13:44:19.810Z,30.20
2018-07-11T13:46:49.244Z,29.20
2018-07-11T13:49:18.821Z,28.70
2018-07-11T13:51:48.389Z,28.10
2018-07-11T13:54:17.821Z,28.80
2018-07-11T13:56:47.426Z,28.60
2018-07-11T13:59:17.842Z,28.20
2018-07-11T14:01:47.365Z,27.50
2018-07-11T14:04:16.772Z,27.20
2018-07-11T14:06:46.224Z,26.60
2018-07-11T14:09:15.906Z,26.10
2018-07-11T14:11:45.390Z,26.00
2018-07-11T14:14:14.823Z,25.90
2018-07-11T14:16:44.247Z,25.80
2018-07-11T14:19:13.648Z,25.70
2018-07-11T14:21:43.160Z,25.70
2018-07-11T14:24:12.877Z,25.50
2018-07-11T14:26:42.563Z,25.60
2018-07-11T14:31:40.930Z,25.40
2018-07-11T14:34:10.482Z,25.40
2018-07-11T14:36:41.076Z,25.50
2018-07-11T14:39:10.540Z,25.50
2018-07-11T14:41:39.962Z,25.30
2018-07-11T14:44:09.488Z,25.20
2018-07-11T14:46:39.815Z,25.10
2018-07-11T14:49:09.371Z,25.20
2018-07-11T14:51:39.100Z,25.30
2018-07-11T14:54:08.377Z,26.00
2018-07-11T14:56:37.864Z,27.80
2018-07-11T14:59:07.286Z,28.80
2018-07-11T15:01:36.880Z,28.80
2018-07-11T15:04:07.456Z,28.70
2018-07-11T15:06:36.953Z,30.30
2018-07-11T15:09:06.804Z,32.50
2018-07-11T15:14:05.105Z,37.50
2018-07-11T15:16:35.061Z,38.80
2018-07-11T15:19:04.619Z,39.80
2018-07-11T15:24:03.326Z,39.50
2018-07-11T15:26:32.896Z,36.80
2018-07-11T15:29:02.394Z,33.20
2018-07-11T15:31:31.897Z,30.50
2018-07-11T15:34:01.512Z,29.10
2018-07-11T15:39:00.414Z,27.30
2018-07-11T15:41:29.911Z,26.70
2018-07-11T15:44:00.689Z,26.50
2018-07-11T15:46:30.885Z,26.40
2018-07-11T15:49:00.526Z,26.30
2018-07-11T15:51:29.978Z,26.20
2018-07-11T15:53:59.449Z,25.80
2018-07-11T15:56:29.230Z,25.70
2018-07-11T16:01:34.194Z,25.40
2018-07-11T16:04:04.590Z,25.30
2018-07-11T16:06:34.113Z,25.40
2018-07-11T16:09:05.497Z,25.70
2018-07-11T16:11:39.825Z,27.50
2018-07-11T16:14:09.298Z,29.40
2018-07-11T16:16:38.826Z,31.10
2018-07-11T16:19:08.351Z,31.90
2018-07-11T16:21:37.722Z,31.40
2018-07-11T16:24:07.352Z,30.10
2018-07-11T16:26:36.899Z,29.90
2018-07-11T16:29:06.349Z,30.70
2018-07-11T16:31:35.745Z,32.00
2018-07-11T16:34:05.207Z,32.90
2018-07-11T16:36:34.651Z,33.10
2018-07-11T16:39:05.281Z,32.80
2018-07-11T16:41:34.893Z,30.70
2018-07-11T16:44:04.568Z,29.10
2018-07-11T16:46:34.947Z,29.00
2018-07-11T16:49:05.377Z,28.40
2018-07-11T16:51:34.872Z,28.10
2018-07-11T16:54:04.771Z,27.50
2018-07-11T16:56:35.351Z,26.40
2018-07-11T17:01:43.979Z,25.30
2018-07-11T17:04:17.102Z,24.90
2018-07-11T17:06:46.605Z,24.70
2018-07-11T17:09:16.515Z,24.70
2018-07-11T17:14:16.820Z,24.60
2018-07-11T17:17:05.289Z,24.60
2018-07-11T17:20:08.800Z,24.40
2018-07-11T17:22:45.708Z,24.20
2018-07-11T17:25:16.097Z,24.20
2018-07-11T17:27:46.280Z,24.10
2018-07-11T17:32:45.296Z,23.60
2018-07-11T17:35:14.791Z,23.50
2018-07-11T17:37:44.397Z,23.40
2018-07-11T17:40:14.668Z,23.30
2018-07-11T17:45:16.468Z,23.60
2018-07-11T17:49:55.964Z,23.80
2018-07-11T17:52:26.692Z,23.70
2018-07-11T17:55:19.835Z,23.40
2018-07-11T17:58:01.755Z,23.30
2018-07-11T18:03:12.392Z,22.90
2018-07-11T18:06:51.016Z,22.70
2018-07-11T18:09:23.768Z,22.50
2018-07-11T18:11:59.204Z,22.40
2018-07-11T18:15:33.577Z,22.20
2018-07-11T18:18:13.425Z,22.10
2018-07-11T18:20:54.198Z,21.90
2018-07-11T18:23:29.877Z,21.70
2018-07-11T18:29:44.509Z,21.70
2018-07-11T18:33:26.758Z,21.70
2018-07-11T18:36:07.533Z,21.60
2018-07-11T18:42:50.005Z,21.50
2018-07-11T18:46:29.530Z,21.60
2018-07-11T18:51:34.793Z,21.40
2018-07-11T18:54:18.289Z,21.30
2018-07-11T18:57:10.503Z,21.30
2018-07-11T18:59:51.572Z,21.20
2018-07-11T19:03:32.382Z,21.10
2018-07-11T19:06:24.405Z,21.00
2018-07-11T19:09:03.035Z,21.00
2018-07-11T19:11:43.252Z,20.90
2018-07-11T19:14:34.826Z,20.70
2018-07-11T19:17:22.962Z,20.70
2018-07-11T19:20:02.114Z,20.60
2018-07-11T19:22:42.251Z,20.50
2018-07-11T19:29:26.175Z,20.20
2018-07-11T19:32:02.924Z,20.20
2018-07-11T19:36:53.786Z,20.10
2018-07-11T19:41:38.730Z,20.10
2018-07-11T19:44:24.151Z,20.10
2018-07-11T19:47:05.567Z,20.00
2018-07-11T19:49:56.897Z,20.00
2018-07-11T19:52:37.657Z,20.00
2018-07-11T19:56:16.915Z,19.90
2018-07-11T19:58:47.110Z,19.90
2018-07-11T20:01:16.596Z,19.80
2018-07-11T20:03:46.037Z,19.70
2018-07-11T20:06:15.509Z,19.70
2018-07-11T20:08:45.003Z,19.70
2018-07-11T20:11:14.394Z,19.60
2018-07-11T20:13:43.823Z,19.40
2018-07-11T20:16:13.537Z,19.30
2018-07-11T20:18:42.915Z,19.20
2018-07-11T20:21:12.781Z,19.20
2018-07-11T20:23:42.258Z,19.30
2018-07-11T20:26:11.671Z,19.30
2018-07-11T20:28:41.852Z,19.30
2018-07-11T20:31:11.181Z,19.40
2018-07-11T20:36:10.178Z,19.30
2018-07-11T20:38:39.872Z,19.10
2018-07-11T20:43:39.001Z,18.40
2018-07-11T20:48:39.776Z,17.10
2018-07-11T20:51:09.155Z,16.70
2018-07-11T20:53:38.618Z,16.30
2018-07-11T20:56:07.960Z,16.10
2018-07-11T21:01:23.228Z,15.80
2018-07-11T21:04:18.521Z,15.90
2018-07-11T21:09:15.031Z,16.00
2018-07-11T21:13:09.223Z,15.70
2018-07-11T21:15:58.688Z,15.60
2018-07-11T21:18:50.127Z,15.60
2018-07-11T21:21:19.434Z,15.70
2018-07-11T21:23:49.417Z,15.70
2018-07-11T21:26:18.843Z,15.80
2018-07-11T21:28:48.228Z,15.90
2018-07-11T21:31:17.835Z,15.90
2018-07-11T21:33:53.479Z,16.00
2018-07-11T21:36:23.031Z,15.80
2018-07-11T21:38:52.925Z,15.80
2018-07-11T21:41:22.609Z,15.60
2018-07-11T21:43:52.204Z,15.60
2018-07-11T21:46:22.013Z,15.50
2018-07-11T21:48:51.488Z,15.50
2018-07-11T21:51:20.966Z,15.40
2018-07-11T21:53:51.317Z,15.40
2018-07-11T21:56:20.619Z,15.40
2018-07-11T21:58:50.580Z,15.50
2018-07-11T22:01:20.662Z,15.50
2018-07-11T22:03:50.115Z,15.50
2018-07-11T22:06:19.507Z,15.60
2018-07-11T22:08:48.856Z,15.60
2018-07-11T22:11:18.314Z,15.50
2018-07-11T22:13:47.712Z,15.50
2018-07-11T22:16:17.194Z,15.40
2018-07-11T22:18:47.138Z,15.30
2018-07-11T22:21:15.838Z,15.40
2018-07-11T22:23:43.814Z,15.40
2018-07-11T22:26:11.990Z,15.40
2018-07-11T22:28:40.059Z,15.40
2018-07-11T22:31:08.045Z,15.50
2018-07-11T22:33:36.018Z,15.50
2018-07-11T22:36:04.162Z,15.50
2018-07-11T22:38:32.138Z,15.50
2018-07-11T22:41:00.099Z,15.50
2018-07-11T22:43:28.100Z,15.50
2018-07-11T22:45:56.165Z,15.60
2018-07-11T22:48:24.157Z,15.60
2018-07-11T22:50:52.942Z,15.60
2018-07-11T22:53:20.968Z,15.60
2018-07-11T22:55:48.986Z,15.60
2018-07-11T22:58:17.051Z,15.60
2018-07-11T23:00:45.008Z,15.60
2018-07-11T23:03:13.234Z,15.60
2018-07-11T23:05:41.321Z,15.60
2018-07-11T23:08:09.932Z,15.60
2018-07-11T23:10:38.759Z,15.60
2018-07-11T23:13:07.972Z,15.60
2018-07-11T23:15:36.019Z,15.70
2018-07-11T23:20:32.252Z,15.70
2018-07-11T23:23:00.209Z,15.70
2018-07-11T23:25:28.206Z,15.70
2018-07-11T23:30:24.346Z,15.60
2018-07-11T23:35:20.389Z,15.60
2018-07-11T23:40:16.568Z,15.70
2018-07-11T23:42:44.515Z,15.70
2018-07-11T23:45:12.481Z,15.70
2018-07-11T23:47:40.478Z,15.70
2018-07-11T23:50:09.413Z,15.70
2018-07-11T23:52:37.382Z,15.70
2018-07-11T23:55:05.394Z,15.70
2018-07-11T23:57:33.393Z,15.70
